sensor_id;sensor_type;location;lat;lon;timestamp;pressure;altitude;pressure_sealevel;temperature;humidity
79123;BME280;68526;44.600;26.032;2023-03-14T00:00:07;100868.88;;;3.68;57.61
79123;BME280;68526;44.600;26.032;2023-03-14T00:00:23;100881.19;;;3.72;57.86
79123;BME280;68526;44.600;26.032;2023-03-14T00:00:39;100878.50;;;3.71;57.77
79123;BME280;68526;44.600;26.032;2023-03-14T00:00:55;100873.41;;;3.72;57.16
79123;BME280;68526;44.600;26.032;2023-03-14T00:01:12;100870.81;;;3.72;58.53
79123;BME280;68526;44.600;26.032;2023-03-14T00:01:29;100870.88;;;3.74;57.62
79123;BME280;68526;44.600;26.032;2023-03-14T00:01:45;100871.75;;;3.74;58.20
79123;BME280;68526;44.600;26.032;2023-03-14T00:02:01;100876.91;;;3.73;58.04
79123;BME280;68526;44.600;26.032;2023-03-14T00:02:17;100877.75;;;3.73;57.96
79123;BME280;68526;44.600;26.032;2023-03-14T00:02:33;100871.63;;;3.71;58.17
79123;BME280;68526;44.600;26.032;2023-03-14T00:02:52;100875.84;;;3.69;58.02
79123;BME280;68526;44.600;26.032;2023-03-14T00:03:07;100871.44;;;3.67;57.79
79123;BME280;68526;44.600;26.032;2023-03-14T00:03:23;100875.78;;;3.68;57.52
79123;BME280;68526;44.600;26.032;2023-03-14T00:03:39;100866.09;;;3.64;57.63
79123;BME280;68526;44.600;26.032;2023-03-14T00:03:55;100868.00;;;3.68;58.63
79123;BME280;68526;44.600;26.032;2023-03-14T00:04:12;100868.69;;;3.64;58.03
79123;BME280;68526;44.600;26.032;2023-03-14T00:04:28;100867.00;;;3.64;58.01
79123;BME280;68526;44.600;26.032;2023-03-14T00:04:43;100868.75;;;3.65;58.08
79123;BME280;68526;44.600;26.032;2023-03-14T00:04:59;100868.75;;;3.65;58.36
79123;BME280;68526;44.600;26.032;2023-03-14T00:05:17;100869.59;;;3.64;58.41
79123;BME280;68526;44.600;26.032;2023-03-14T00:05:34;100864.41;;;3.64;57.13
79123;BME280;68526;44.600;26.032;2023-03-14T00:05:50;100867.78;;;3.63;58.69
79123;BME280;68526;44.600;26.032;2023-03-14T00:06:07;100872.94;;;3.62;58.59
79123;BME280;68526;44.600;26.032;2023-03-14T00:06:23;100865.06;;;3.60;57.87
79123;BME280;68526;44.600;26.032;2023-03-14T00:06:40;100869.44;;;3.61;58.28
79123;BME280;68526;44.600;26.032;2023-03-14T00:06:56;100868.53;;;3.61;57.98
79123;BME280;68526;44.600;26.032;2023-03-14T00:07:12;100867.59;;;3.59;58.60
79123;BME280;68526;44.600;26.032;2023-03-14T00:07:28;100866.69;;;3.58;58.58
79123;BME280;68526;44.600;26.032;2023-03-14T00:07:47;100864.13;;;3.58;58.55
79123;BME280;68526;44.600;26.032;2023-03-14T00:08:03;100859.72;;;3.57;58.37
79123;BME280;68526;44.600;26.032;2023-03-14T00:08:18;100862.31;;;3.57;57.80
79123;BME280;68526;44.600;26.032;2023-03-14T00:08:36;100859.81;;;3.59;58.12
79123;BME280;68526;44.600;26.032;2023-03-14T00:08:52;100864.16;;;3.60;57.80
79123;BME280;68526;44.600;26.032;2023-03-14T00:09:09;100861.56;;;3.60;57.81
79123;BME280;68526;44.600;26.032;2023-03-14T00:09:25;100858.09;;;3.59;58.14
79123;BME280;68526;44.600;26.032;2023-03-14T00:09:41;100868.44;;;3.59;57.93
79123;BME280;68526;44.600;26.032;2023-03-14T00:09:58;100858.94;;;3.58;57.75
79123;BME280;68526;44.600;26.032;2023-03-14T00:10:15;100862.41;;;3.59;57.69
79123;BME280;68526;44.600;26.032;2023-03-14T00:10:31;100861.53;;;3.58;57.75
79123;BME280;68526;44.600;26.032;2023-03-14T00:10:46;100865.00;;;3.59;58.31
79123;BME280;68526;44.600;26.032;2023-03-14T00:11:06;100865.81;;;3.58;58.17
79123;BME280;68526;44.600;26.032;2023-03-14T00:11:23;100861.56;;;3.60;57.78
79123;BME280;68526;44.600;26.032;2023-03-14T00:11:39;100860.63;;;3.58;58.10
79123;BME280;68526;44.600;26.032;2023-03-14T00:11:56;100865.75;;;3.56;58.14
79123;BME280;68526;44.600;26.032;2023-03-14T00:12:12;100863.16;;;3.56;57.47
79123;BME280;68526;44.600;26.032;2023-03-14T00:12:30;100862.25;;;3.55;58.27
79123;BME280;68526;44.600;26.032;2023-03-14T00:12:46;100860.56;;;3.56;58.16
79123;BME280;68526;44.600;26.032;2023-03-14T00:13:02;100862.25;;;3.55;57.95
79123;BME280;68526;44.600;26.032;2023-03-14T00:13:19;100858.78;;;3.55;58.25
79123;BME280;68526;44.600;26.032;2023-03-14T00:13:34;100860.56;;;3.56;57.97
79123;BME280;68526;44.600;26.032;2023-03-14T00:13:51;100854.50;;;3.55;57.69
79123;BME280;68526;44.600;26.032;2023-03-14T00:14:07;100862.31;;;3.57;57.37
79123;BME280;68526;44.600;26.032;2023-03-14T00:14:23;100855.44;;;3.58;58.16
79123;BME280;68526;44.600;26.032;2023-03-14T00:14:39;100857.13;;;3.57;58.12
79123;BME280;68526;44.600;26.032;2023-03-14T00:14:59;100859.69;;;3.55;57.38
79123;BME280;68526;44.600;26.032;2023-03-14T00:15:15;100854.50;;;3.55;57.68
79123;BME280;68526;44.600;26.032;2023-03-14T00:15:32;100859.69;;;3.55;57.57
79123;BME280;68526;44.600;26.032;2023-03-14T00:15:49;100858.78;;;3.55;58.09
79123;BME280;68526;44.600;26.032;2023-03-14T00:16:06;100859.69;;;3.55;57.91
79123;BME280;68526;44.600;26.032;2023-03-14T00:16:22;100860.47;;;3.54;58.14
79123;BME280;68526;44.600;26.032;2023-03-14T00:16:38;100857.75;;;3.51;58.02
79123;BME280;68526;44.600;26.032;2023-03-14T00:16:54;100866.25;;;3.49;58.19
79123;BME280;68526;44.600;26.032;2023-03-14T00:17:10;100861.03;;;3.47;58.36
79123;BME280;68526;44.600;26.032;2023-03-14T00:17:27;100851.31;;;3.43;58.33
79123;BME280;68526;44.600;26.032;2023-03-14T00:17:43;100855.69;;;3.44;58.53
79123;BME280;68526;44.600;26.032;2023-03-14T00:17:59;100857.41;;;3.44;59.00
79123;BME280;68526;44.600;26.032;2023-03-14T00:18:15;100862.53;;;3.42;58.54
79123;BME280;68526;44.600;26.032;2023-03-14T00:18:31;100858.19;;;3.43;58.25
79123;BME280;68526;44.600;26.032;2023-03-14T00:18:48;100858.88;;;3.39;58.85
79123;BME280;68526;44.600;26.032;2023-03-14T00:19:04;100863.19;;;3.38;59.24
79123;BME280;68526;44.600;26.032;2023-03-14T00:19:20;100860.09;;;3.28;60.20
79123;BME280;68526;44.600;26.032;2023-03-14T00:19:36;100861.47;;;3.21;61.08
79123;BME280;68526;44.600;26.032;2023-03-14T00:19:52;100855.41;;;3.21;60.58
79123;BME280;68526;44.600;26.032;2023-03-14T00:20:10;100860.69;;;3.22;59.49
79123;BME280;68526;44.600;26.032;2023-03-14T00:20:27;100861.63;;;3.24;59.70
79123;BME280;68526;44.600;26.032;2023-03-14T00:20:43;100862.69;;;3.28;59.17
79123;BME280;68526;44.600;26.032;2023-03-14T00:20:59;100860.13;;;3.29;58.39
79123;BME280;68526;44.600;26.032;2023-03-14T00:21:15;100853.41;;;3.33;58.09
79123;BME280;68526;44.600;26.032;2023-03-14T00:21:31;100857.94;;;3.37;58.38
79123;BME280;68526;44.600;26.032;2023-03-14T00:21:47;100863.91;;;3.36;58.30
79123;BME280;68526;44.600;26.032;2023-03-14T00:22:03;100861.38;;;3.37;58.63
79123;BME280;68526;44.600;26.032;2023-03-14T00:22:20;100863.13;;;3.37;58.42
79123;BME280;68526;44.600;26.032;2023-03-14T00:22:36;100862.06;;;3.33;58.50
79123;BME280;68526;44.600;26.032;2023-03-14T00:22:52;100858.66;;;3.34;58.54
79123;BME280;68526;44.600;26.032;2023-03-14T00:23:08;100855.09;;;3.32;58.72
79123;BME280;68526;44.600;26.032;2023-03-14T00:23:24;100860.28;;;3.32;58.05
79123;BME280;68526;44.600;26.032;2023-03-14T00:23:41;100862.88;;;3.32;58.33
79123;BME280;68526;44.600;26.032;2023-03-14T00:23:58;100862.00;;;3.32;58.31
79123;BME280;68526;44.600;26.032;2023-03-14T00:24:14;100861.13;;;3.31;59.48
79123;BME280;68526;44.600;26.032;2023-03-14T00:24:30;100861.03;;;3.30;58.95
79123;BME280;68526;44.600;26.032;2023-03-14T00:24:45;100865.31;;;3.29;58.53
79123;BME280;68526;44.600;26.032;2023-03-14T00:25:01;100861.94;;;3.30;58.75
79123;BME280;68526;44.600;26.032;2023-03-14T00:25:19;100862.00;;;3.32;58.09
79123;BME280;68526;44.600;26.032;2023-03-14T00:25:34;100865.47;;;3.32;58.54
79123;BME280;68526;44.600;26.032;2023-03-14T00:25:50;100860.22;;;3.31;58.52
79123;BME280;68526;44.600;26.032;2023-03-14T00:26:08;100866.38;;;3.33;58.35
79123;BME280;68526;44.600;26.032;2023-03-14T00:26:24;100864.56;;;3.32;58.35
79123;BME280;68526;44.600;26.032;2023-03-14T00:26:41;100868.91;;;3.31;58.71
79123;BME280;68526;44.600;26.032;2023-03-14T00:26:57;100864.56;;;3.32;58.06
79123;BME280;68526;44.600;26.032;2023-03-14T00:27:13;100861.03;;;3.30;58.69
79123;BME280;68526;44.600;26.032;2023-03-14T00:27:29;100864.53;;;3.30;58.84
79123;BME280;68526;44.600;26.032;2023-03-14T00:27:44;100859.34;;;3.30;58.29
79123;BME280;68526;44.600;26.032;2023-03-14T00:28:00;100864.56;;;3.32;58.78
79123;BME280;68526;44.600;26.032;2023-03-14T00:28:16;100869.75;;;3.32;58.48
79123;BME280;68526;44.600;26.032;2023-03-14T00:28:33;100871.50;;;3.31;58.81
79123;BME280;68526;44.600;26.032;2023-03-14T00:28:51;100872.44;;;3.33;58.46
79123;BME280;68526;44.600;26.032;2023-03-14T00:29:08;100863.72;;;3.31;58.14
79123;BME280;68526;44.600;26.032;2023-03-14T00:29:24;100845.06;;;3.21;59.14
79123;BME280;68526;44.600;26.032;2023-03-14T00:29:40;100864.66;;;3.33;59.14
79123;BME280;68526;44.600;26.032;2023-03-14T00:29:59;100867.25;;;3.33;58.29
79123;BME280;68526;44.600;26.032;2023-03-14T00:30:16;100865.56;;;3.34;58.93
79123;BME280;68526;44.600;26.032;2023-03-14T00:30:32;100864.66;;;3.33;58.77
79123;BME280;68526;44.600;26.032;2023-03-14T00:30:48;100861.19;;;3.33;59.72
79123;BME280;68526;44.600;26.032;2023-03-14T00:31:05;100867.16;;;3.32;58.64
79123;BME280;68526;44.600;26.032;2023-03-14T00:31:21;100864.56;;;3.32;59.50
79123;BME280;68526;44.600;26.032;2023-03-14T00:31:37;100865.47;;;3.32;59.04
79123;BME280;68526;44.600;26.032;2023-03-14T00:31:54;100860.38;;;3.34;59.19
79123;BME280;68526;44.600;26.032;2023-03-14T00:32:10;100864.56;;;3.32;59.67
79123;BME280;68526;44.600;26.032;2023-03-14T00:32:26;100872.19;;;3.29;59.65
79123;BME280;68526;44.600;26.032;2023-03-14T00:32:42;100867.84;;;3.28;60.42
79123;BME280;68526;44.600;26.032;2023-03-14T00:32:58;100861.63;;;3.24;60.27
79123;BME280;68526;44.600;26.032;2023-03-14T00:33:14;100867.75;;;3.26;59.81
79123;BME280;68526;44.600;26.032;2023-03-14T00:33:31;100867.56;;;3.22;61.48
79123;BME280;68526;44.600;26.032;2023-03-14T00:33:47;100868.31;;;3.19;62.03
79123;BME280;68526;44.600;26.032;2023-03-14T00:34:03;100870.94;;;3.21;61.44
79123;BME280;68526;44.600;26.032;2023-03-14T00:34:18;100870.94;;;3.21;61.04
79123;BME280;68526;44.600;26.032;2023-03-14T00:34:35;100865.63;;;3.18;61.88
79123;BME280;68526;44.600;26.032;2023-03-14T00:34:52;100866.59;;;3.20;61.37
79123;BME280;68526;44.600;26.032;2023-03-14T00:35:08;100871.69;;;3.18;61.21
79123;BME280;68526;44.600;26.032;2023-03-14T00:35:24;100863.13;;;3.19;60.40
79123;BME280;68526;44.600;26.032;2023-03-14T00:35:40;100864.06;;;3.21;61.04
79123;BME280;68526;44.600;26.032;2023-03-14T00:35:57;100846.38;;;3.13;60.59
79123;BME280;68526;44.600;26.032;2023-03-14T00:36:17;100868.50;;;3.24;60.11
79123;BME280;68526;44.600;26.032;2023-03-14T00:36:33;100862.53;;;3.25;61.00
79123;BME280;68526;44.600;26.032;2023-03-14T00:36:49;100867.63;;;3.23;60.09
79123;BME280;68526;44.600;26.032;2023-03-14T00:37:04;100870.19;;;3.23;60.52
79123;BME280;68526;44.600;26.032;2023-03-14T00:37:20;100872.75;;;3.22;60.23
79123;BME280;68526;44.600;26.032;2023-03-14T00:37:36;100862.38;;;3.22;60.66
79123;BME280;68526;44.600;26.032;2023-03-14T00:37:53;100861.56;;;3.23;60.56
79123;BME280;68526;44.600;26.032;2023-03-14T00:38:09;100864.22;;;3.24;60.09
79123;BME280;68526;44.600;26.032;2023-03-14T00:38:25;100865.19;;;3.26;60.21
79123;BME280;68526;44.600;26.032;2023-03-14T00:38:41;100866.06;;;3.27;61.16
79123;BME280;68526;44.600;26.032;2023-03-14T00:38:57;100860.09;;;3.28;59.95
79123;BME280;68526;44.600;26.032;2023-03-14T00:39:13;100863.28;;;3.22;61.10
79123;BME280;68526;44.600;26.032;2023-03-14T00:39:30;100867.25;;;3.16;60.10
79123;BME280;68526;44.600;26.032;2023-03-14T00:39:46;100857.84;;;3.18;60.32
79123;BME280;68526;44.600;26.032;2023-03-14T00:40:02;100860.53;;;3.19;60.08
79123;BME280;68526;44.600;26.032;2023-03-14T00:40:21;100861.28;;;3.17;60.06
79123;BME280;68526;44.600;26.032;2023-03-14T00:40:39;100857.72;;;3.15;60.73
79123;BME280;68526;44.600;26.032;2023-03-14T00:40:54;100860.22;;;3.13;60.21
79123;BME280;68526;44.600;26.032;2023-03-14T00:41:12;100858.53;;;3.14;60.68
79123;BME280;68526;44.600;26.032;2023-03-14T00:41:30;100854.16;;;3.13;59.99
79123;BME280;68526;44.600;26.032;2023-03-14T00:41:45;100853.34;;;3.14;60.51
79123;BME280;68526;44.600;26.032;2023-03-14T00:42:01;100856.00;;;3.15;60.06
79123;BME280;68526;44.600;26.032;2023-03-14T00:42:17;100858.69;;;3.17;60.16
79123;BME280;68526;44.600;26.032;2023-03-14T00:42:33;100853.50;;;3.17;60.40
79123;BME280;68526;44.600;26.032;2023-03-14T00:42:50;100859.59;;;3.17;59.55
79123;BME280;68526;44.600;26.032;2023-03-14T00:43:05;100852.66;;;3.18;59.97
79123;BME280;68526;44.600;26.032;2023-03-14T00:43:21;100852.66;;;3.18;60.49
79123;BME280;68526;44.600;26.032;2023-03-14T00:43:37;100855.25;;;3.18;60.08
79123;BME280;68526;44.600;26.032;2023-03-14T00:43:53;100857.84;;;3.18;59.46
79123;BME280;68526;44.600;26.032;2023-03-14T00:44:09;100850.91;;;3.17;59.19
79123;BME280;68526;44.600;26.032;2023-03-14T00:44:26;100848.31;;;3.17;59.57
79123;BME280;68526;44.600;26.032;2023-03-14T00:44:42;100850.03;;;3.16;59.99
79123;BME280;68526;44.600;26.032;2023-03-14T00:44:59;100848.31;;;3.17;59.73
79123;BME280;68526;44.600;26.032;2023-03-14T00:45:15;100850.91;;;3.17;60.48
79123;BME280;68526;44.600;26.032;2023-03-14T00:45:31;100849.22;;;3.17;60.14
79123;BME280;68526;44.600;26.032;2023-03-14T00:45:48;100856.16;;;3.18;60.25
79123;BME280;68526;44.600;26.032;2023-03-14T00:46:04;100841.22;;;3.13;60.31
79123;BME280;68526;44.600;26.032;2023-03-14T00:46:20;100848.38;;;3.18;59.45
79123;BME280;68526;44.600;26.032;2023-03-14T00:46:36;100855.34;;;3.19;60.33
79123;BME280;68526;44.600;26.032;2023-03-14T00:46:51;100851.81;;;3.17;60.01
79123;BME280;68526;44.600;26.032;2023-03-14T00:47:07;100841.38;;;3.16;60.17
79123;BME280;68526;44.600;26.032;2023-03-14T00:47:24;100849.97;;;3.15;60.56
79123;BME280;68526;44.600;26.032;2023-03-14T00:47:40;100847.38;;;3.15;59.59
79123;BME280;68526;44.600;26.032;2023-03-14T00:48:00;100843.00;;;3.14;59.83
79123;BME280;68526;44.600;26.032;2023-03-14T00:48:16;100843.00;;;3.14;60.26
79123;BME280;68526;44.600;26.032;2023-03-14T00:48:32;100847.28;;;3.13;59.67
79123;BME280;68526;44.600;26.032;2023-03-14T00:48:48;100839.59;;;3.15;59.70
79123;BME280;68526;44.600;26.032;2023-03-14T00:49:05;100834.44;;;3.15;60.22
79123;BME280;68526;44.600;26.032;2023-03-14T00:49:21;100839.59;;;3.15;60.75
79123;BME280;68526;44.600;26.032;2023-03-14T00:49:37;100836.03;;;3.13;60.19
79123;BME280;68526;44.600;26.032;2023-03-14T00:49:53;100840.91;;;3.07;60.37
79123;BME280;68526;44.600;26.032;2023-03-14T00:50:10;100841.66;;;3.04;60.79
79123;BME280;68526;44.600;26.032;2023-03-14T00:50:27;100833.88;;;3.04;59.86
79123;BME280;68526;44.600;26.032;2023-03-14T00:50:43;100841.44;;;3.00;61.00
79123;BME280;68526;44.600;26.032;2023-03-14T00:50:59;100839.50;;;2.95;60.37
79123;BME280;68526;44.600;26.032;2023-03-14T00:51:15;100840.41;;;2.96;60.83
79123;BME280;68526;44.600;26.032;2023-03-14T00:51:31;100837.06;;;2.98;60.25
79123;BME280;68526;44.600;26.032;2023-03-14T00:51:46;100837.06;;;2.98;60.48
79123;BME280;68526;44.600;26.032;2023-03-14T00:52:03;100838.78;;;2.98;60.94
79123;BME280;68526;44.600;26.032;2023-03-14T00:52:19;100840.66;;;3.01;60.05
79123;BME280;68526;44.600;26.032;2023-03-14T00:52:35;100831.97;;;3.00;60.12
79123;BME280;68526;44.600;26.032;2023-03-14T00:52:51;100837.97;;;2.99;59.51
79123;BME280;68526;44.600;26.032;2023-03-14T00:53:07;100833.75;;;3.01;59.40
79123;BME280;68526;44.600;26.032;2023-03-14T00:53:24;100831.97;;;3.00;60.40
79123;BME280;68526;44.600;26.032;2023-03-14T00:53:40;100832.78;;;2.99;60.20
79123;BME280;68526;44.600;26.032;2023-03-14T00:53:56;100833.69;;;3.00;59.67
79123;BME280;68526;44.600;26.032;2023-03-14T00:54:11;100834.63;;;3.02;59.67
79123;BME280;68526;44.600;26.032;2023-03-14T00:54:27;100836.31;;;3.01;59.86
79123;BME280;68526;44.600;26.032;2023-03-14T00:54:44;100827.47;;;2.96;60.82
79123;BME280;68526;44.600;26.032;2023-03-14T00:55:00;100829.09;;;2.94;60.37
79123;BME280;68526;44.600;26.032;2023-03-14T00:55:16;100830.63;;;2.90;61.23
79123;BME280;68526;44.600;26.032;2023-03-14T00:55:32;100828.13;;;2.92;60.52
79123;BME280;68526;44.600;26.032;2023-03-14T00:55:51;100829.91;;;2.93;60.73
79123;BME280;68526;44.600;26.032;2023-03-14T00:56:09;100819.31;;;2.88;60.03
79123;BME280;68526;44.600;26.032;2023-03-14T00:56:25;100823.84;;;2.92;59.95
79123;BME280;68526;44.600;26.032;2023-03-14T00:56:42;100829.09;;;2.94;59.70
79123;BME280;68526;44.600;26.032;2023-03-14T00:56:57;100831.75;;;2.95;59.80
79123;BME280;68526;44.600;26.032;2023-03-14T00:57:13;100828.34;;;2.96;59.69
79123;BME280;68526;44.600;26.032;2023-03-14T00:57:29;100825.84;;;2.98;60.27
79123;BME280;68526;44.600;26.032;2023-03-14T00:57:45;100831.84;;;2.97;60.04
79123;BME280;68526;44.600;26.032;2023-03-14T00:58:01;100828.34;;;2.96;60.28
79123;BME280;68526;44.600;26.032;2023-03-14T00:58:18;100830.03;;;2.96;59.84
79123;BME280;68526;44.600;26.032;2023-03-14T00:58:34;100828.34;;;2.96;59.58
79123;BME280;68526;44.600;26.032;2023-03-14T00:58:53;100828.44;;;2.98;59.56
79123;BME280;68526;44.600;26.032;2023-03-14T00:59:09;100820.44;;;2.93;59.94
79123;BME280;68526;44.600;26.032;2023-03-14T00:59:25;100826.56;;;2.95;59.95
79123;BME280;68526;44.600;26.032;2023-03-14T00:59:41;100825.69;;;2.95;59.81
79123;BME280;68526;44.600;26.032;2023-03-14T00:59:59;100824.72;;;2.93;59.59
79123;BME280;68526;44.600;26.032;2023-03-14T01:00:15;100818.69;;;2.92;59.20
79123;BME280;68526;44.600;26.032;2023-03-14T01:00:31;100809.94;;;2.90;60.10
79123;BME280;68526;44.600;26.032;2023-03-14T01:00:47;100825.69;;;2.95;59.85
79123;BME280;68526;44.600;26.032;2023-03-14T01:01:05;100819.69;;;2.96;59.89
79123;BME280;68526;44.600;26.032;2023-03-14T01:01:21;100817.94;;;2.95;60.36
79123;BME280;68526;44.600;26.032;2023-03-14T01:01:39;100822.22;;;2.94;60.03
79123;BME280;68526;44.600;26.032;2023-03-14T01:01:55;100818.59;;;2.91;60.16
79123;BME280;68526;44.600;26.032;2023-03-14T01:02:10;100827.16;;;2.90;60.65
79123;BME280;68526;44.600;26.032;2023-03-14T01:02:26;100815.84;;;2.88;60.41
79123;BME280;68526;44.600;26.032;2023-03-14T01:02:43;100813.25;;;2.88;60.11
79123;BME280;68526;44.600;26.032;2023-03-14T01:02:59;100818.44;;;2.88;60.62
79123;BME280;68526;44.600;26.032;2023-03-14T01:03:16;100813.34;;;2.89;60.41
79123;BME280;68526;44.600;26.032;2023-03-14T01:03:31;100813.34;;;2.89;59.90
79123;BME280;68526;44.600;26.032;2023-03-14T01:03:50;100817.47;;;2.86;61.06
79123;BME280;68526;44.600;26.032;2023-03-14T01:04:06;100797.91;;;2.73;60.72
79123;BME280;68526;44.600;26.032;2023-03-14T01:04:22;100813.78;;;2.81;61.51
79123;BME280;68526;44.600;26.032;2023-03-14T01:04:39;100812.84;;;2.79;61.24
79123;BME280;68526;44.600;26.032;2023-03-14T01:04:55;100814.53;;;2.78;60.87
79123;BME280;68526;44.600;26.032;2023-03-14T01:05:11;100810.97;;;2.76;60.99
79123;BME280;68526;44.600;26.032;2023-03-14T01:05:27;100812.00;;;2.80;60.48
79123;BME280;68526;44.600;26.032;2023-03-14T01:05:43;100816.44;;;2.82;60.70
79123;BME280;68526;44.600;26.032;2023-03-14T01:06:07;100806.09;;;2.82;60.24
79123;BME280;68526;44.600;26.032;2023-03-14T01:06:24;100803.34;;;2.79;61.73
79123;BME280;68526;44.600;26.032;2023-03-14T01:06:41;100815.50;;;2.80;60.99
79123;BME280;68526;44.600;26.032;2023-03-14T01:06:57;100807.78;;;2.82;61.05
79123;BME280;68526;44.600;26.032;2023-03-14T01:07:13;100808.69;;;2.82;60.20
79123;BME280;68526;44.600;26.032;2023-03-14T01:07:29;100806.09;;;2.82;60.83
79123;BME280;68526;44.600;26.032;2023-03-14T01:07:45;100812.09;;;2.81;61.14
79123;BME280;68526;44.600;26.032;2023-03-14T01:08:00;100810.31;;;2.80;60.48
79123;BME280;68526;44.600;26.032;2023-03-14T01:08:18;100809.50;;;2.81;60.73
79123;BME280;68526;44.600;26.032;2023-03-14T01:08:33;100808.53;;;2.79;60.05
79123;BME280;68526;44.600;26.032;2023-03-14T01:08:49;100809.50;;;2.81;60.26
79123;BME280;68526;44.600;26.032;2023-03-14T01:09:05;100812.16;;;2.83;60.35
79123;BME280;68526;44.600;26.032;2023-03-14T01:09:21;100805.19;;;2.82;60.28
79123;BME280;68526;44.600;26.032;2023-03-14T01:09:38;100808.69;;;2.82;59.92
79123;BME280;68526;44.600;26.032;2023-03-14T01:09:54;100812.16;;;2.83;59.77
79123;BME280;68526;44.600;26.032;2023-03-14T01:10:10;100804.47;;;2.84;60.24
79123;BME280;68526;44.600;26.032;2023-03-14T01:10:26;100807.94;;;2.85;60.79
79123;BME280;68526;44.600;26.032;2023-03-14T01:10:42;100806.97;;;2.83;60.58
79123;BME280;68526;44.600;26.032;2023-03-14T01:10:59;100800.91;;;2.82;60.14
79123;BME280;68526;44.600;26.032;2023-03-14T01:11:17;100807.06;;;2.84;60.29
79123;BME280;68526;44.600;26.032;2023-03-14T01:11:34;100800.91;;;2.82;60.12
79123;BME280;68526;44.600;26.032;2023-03-14T01:11:51;100809.56;;;2.83;61.02
79123;BME280;68526;44.600;26.032;2023-03-14T01:12:07;100798.25;;;2.81;61.00
79123;BME280;68526;44.600;26.032;2023-03-14T01:12:23;100798.16;;;2.79;60.92
79123;BME280;68526;44.600;26.032;2023-03-14T01:12:39;100804.97;;;2.77;60.61
79123;BME280;68526;44.600;26.032;2023-03-14T01:12:55;100798.75;;;2.74;60.92
79123;BME280;68526;44.600;26.032;2023-03-14T01:13:12;100800.69;;;2.78;61.21
79123;BME280;68526;44.600;26.032;2023-03-14T01:13:28;100802.47;;;2.79;60.95
79123;BME280;68526;44.600;26.032;2023-03-14T01:13:44;100808.53;;;2.79;60.51
79123;BME280;68526;44.600;26.032;2023-03-14T01:14:00;100806.03;;;2.81;60.19
79123;BME280;68526;44.600;26.032;2023-03-14T01:14:16;100806.91;;;2.81;60.45
79123;BME280;68526;44.600;26.032;2023-03-14T01:14:34;100806.09;;;2.82;60.14
79123;BME280;68526;44.600;26.032;2023-03-14T01:14:49;100806.09;;;2.82;60.82
79123;BME280;68526;44.600;26.032;2023-03-14T01:15:07;100801.91;;;2.84;60.40
79123;BME280;68526;44.600;26.032;2023-03-14T01:15:23;100803.66;;;2.85;60.76
79123;BME280;68526;44.600;26.032;2023-03-14T01:15:39;100812.16;;;2.83;61.00
79123;BME280;68526;44.600;26.032;2023-03-14T01:16:01;100809.50;;;2.81;60.48
79123;BME280;68526;44.600;26.032;2023-03-14T01:16:18;100808.69;;;2.82;60.09
79123;BME280;68526;44.600;26.032;2023-03-14T01:16:34;100806.91;;;2.81;60.92
79123;BME280;68526;44.600;26.032;2023-03-14T01:16:50;100802.59;;;2.82;61.08
79123;BME280;68526;44.600;26.032;2023-03-14T01:17:07;100804.34;;;2.81;60.52
79123;BME280;68526;44.600;26.032;2023-03-14T01:17:23;100806.03;;;2.81;60.83
79123;BME280;68526;44.600;26.032;2023-03-14T01:17:39;100806.78;;;2.78;61.49
79123;BME280;68526;44.600;26.032;2023-03-14T01:17:55;100807.56;;;2.77;60.88
79123;BME280;68526;44.600;26.032;2023-03-14T01:18:11;100808.47;;;2.78;60.80
79123;BME280;68526;44.600;26.032;2023-03-14T01:18:26;100804.19;;;2.78;61.02
79123;BME280;68526;44.600;26.032;2023-03-14T01:18:43;100809.41;;;2.80;60.43
79123;BME280;68526;44.600;26.032;2023-03-14T01:19:01;100801.75;;;2.81;60.89
79123;BME280;68526;44.600;26.032;2023-03-14T01:19:17;100804.34;;;2.81;61.01
79123;BME280;68526;44.600;26.032;2023-03-14T01:19:32;100797.56;;;2.85;60.12
79123;BME280;68526;44.600;26.032;2023-03-14T01:19:48;100805.34;;;2.85;60.44
79123;BME280;68526;44.600;26.032;2023-03-14T01:20:05;100803.50;;;2.82;61.03
79123;BME280;68526;44.600;26.032;2023-03-14T01:20:24;100804.25;;;2.80;60.77
79123;BME280;68526;44.600;26.032;2023-03-14T01:20:41;100800.84;;;2.81;60.89
79123;BME280;68526;44.600;26.032;2023-03-14T01:20:57;100795.69;;;2.81;60.97
79123;BME280;68526;44.600;26.032;2023-03-14T01:21:15;100803.50;;;2.82;60.69
79123;BME280;68526;44.600;26.032;2023-03-14T01:21:34;100793.88;;;2.80;60.75
79123;BME280;68526;44.600;26.032;2023-03-14T01:21:50;100808.63;;;2.81;60.80
79123;BME280;68526;44.600;26.032;2023-03-14T01:22:06;100796.47;;;2.80;60.75
79123;BME280;68526;44.600;26.032;2023-03-14T01:22:23;100797.31;;;2.79;60.44
79123;BME280;68526;44.600;26.032;2023-03-14T01:22:39;100796.47;;;2.80;60.43
79123;BME280;68526;44.600;26.032;2023-03-14T01:22:55;100795.69;;;2.81;60.29
79123;BME280;68526;44.600;26.032;2023-03-14T01:23:11;100805.94;;;2.79;60.54
79123;BME280;68526;44.600;26.032;2023-03-14T01:23:27;100794.78;;;2.80;61.21
79123;BME280;68526;44.600;26.032;2023-03-14T01:23:43;100804.25;;;2.80;60.63
79123;BME280;68526;44.600;26.032;2023-03-14T01:24:02;100797.38;;;2.80;60.41
79123;BME280;68526;44.600;26.032;2023-03-14T01:24:18;100791.28;;;2.80;60.93
79123;BME280;68526;44.600;26.032;2023-03-14T01:24:34;100805.13;;;2.80;61.08
79123;BME280;68526;44.600;26.032;2023-03-14T01:24:50;100803.34;;;2.79;60.87
79123;BME280;68526;44.600;26.032;2023-03-14T01:25:06;100803.34;;;2.79;60.49
79123;BME280;68526;44.600;26.032;2023-03-14T01:25:24;100797.31;;;2.79;60.59
79123;BME280;68526;44.600;26.032;2023-03-14T01:25:41;100798.91;;;2.77;61.37
79123;BME280;68526;44.600;26.032;2023-03-14T01:25:57;100798.84;;;2.75;61.15